Airfield :
LOGIN :

Register | Disclaimer

   EN    FR    IT 

 










Legend :    VFR   Marginal VFR   IFR   Intensive IFR   Very Intensive IFR
Visi :
Ceiling :
>= 8 km
>= 3000ft
5 to 8 km
1000 to 3000 ft
1500m to 5 km
500 to 1000 ft
800 to 1500m
200 to 500 ft
< 800m
< 200 ft
Symbols :   Thunderstorms  Fog  Heavy snow  Heavy precipitations  Wind > 20 kt
SIGMETs :     Misc.  Thunderstorms  Icing  Turbulence  Mountain Waves  Volcanic Ashes






- Airport Elevation : 1367 ft
- IATA code : FDH


EDNY - Friedrichshafen

CURRENT METAR :
  • 130350Z AUTO 00000KT 1400 0750 R24/1900D // NCD M01/M01 Q1028

EXPIRED METARs :
  • 130320Z AUTO 00000KT 4500 // FEW085/// M01/M01 Q1028
  • 130250Z AUTO 01003KT 9000 // FEW042/// BKN087/// BKN240/// 00/M00 Q1028
  • 130220Z AUTO 02003KT 350V050 7000 // SCT040/// BKN081/// OVC096/// 01/00 Q1028
  • 130150Z AUTO 36002KT 9000 // BKN067/// OVC095/// 01/00 Q1028
  • 130120Z AUTO VRB01KT 9999 // FEW015/// SCT036/// OVC042/// 01/01 Q1028

TAF TAF EDNY
Valid from the 13 at 00:00 until the 14 at 00:00 UTC


122300Z 1300/1324 VRB03KT 9999 FEW045 BKN060
TEMPO 1302/1306 4000 BR
BECMG 1309/1311 23005KT
BECMG 1315/1317 VRB03KT



MET'MAP, your aeronautical weather chart ! - Copyright ORBIFLY December 2007 - Disclaimer

ORBIFLY MET'MAP TEAM :

Programming & Development : Alexandra Zaïnal
Concept & original design : Baudouin d'Aumeries
Assistance for programming : Marc-Olivier Méhu
Technical & hardware support : Manuel Goepfert

Contact : metmap@orbifly.com




SOURCES & CREDITS :

   NOAA